createdAt,value
2023-03-03T00:00:47.579Z,-1.26
2023-03-03T00:03:22.218Z,-1.24
2023-03-03T00:05:49.964Z,-1.23
2023-03-03T00:08:18.353Z,-1.23
2023-03-03T00:10:45.435Z,-1.22
2023-03-03T00:13:22.065Z,-1.25
2023-03-03T00:15:49.672Z,-1.26
2023-03-03T00:18:36.830Z,-1.28
2023-03-03T00:21:18.913Z,-1.31
2023-03-03T00:23:45.826Z,-1.35
2023-03-03T00:26:20.923Z,-1.35
2023-03-03T00:28:50.964Z,-1.34
2023-03-03T00:31:32.458Z,-1.33
2023-03-03T00:34:22.445Z,-1.31
2023-03-03T00:36:54.071Z,-1.27
2023-03-03T00:39:39.512Z,-1.30
2023-03-03T00:42:13.999Z,-1.37
2023-03-03T00:45:36.614Z,-1.44
2023-03-03T00:48:35.623Z,-1.52
2023-03-03T00:51:20.035Z,-1.55
2023-03-03T00:53:46.966Z,-1.57
2023-03-03T00:56:14.162Z,-1.60
2023-03-03T00:58:41.190Z,-1.62
2023-03-03T01:01:08.321Z,-1.65
2023-03-03T01:03:43.885Z,-1.73
2023-03-03T01:06:11.774Z,-1.80
2023-03-03T01:08:38.614Z,-1.85
2023-03-03T01:11:15.855Z,-1.84
2023-03-03T01:13:45.635Z,-1.82
2023-03-03T01:16:12.536Z,-1.82
2023-03-03T01:18:41.330Z,-1.85
2023-03-03T01:21:09.435Z,-1.91
2023-03-03T01:23:36.301Z,-2.02
2023-03-03T01:26:04.788Z,-2.11
2023-03-03T01:28:34.248Z,-2.16
2023-03-03T01:31:03.556Z,-2.16
2023-03-03T01:33:31.976Z,-2.26
2023-03-03T01:35:59.117Z,-2.38
2023-03-03T01:38:26.165Z,-2.42
2023-03-03T01:40:55.726Z,-2.38
2023-03-03T01:43:25.535Z,-2.36
2023-03-03T01:45:53.388Z,-2.36
2023-03-03T01:48:30.004Z,-2.37
2023-03-03T01:51:28.400Z,-2.39
2023-03-03T01:54:01.927Z,-2.42
2023-03-03T01:56:29.856Z,-2.48
2023-03-03T01:59:06.701Z,-2.52
2023-03-03T02:01:34.312Z,-2.58
2023-03-03T02:04:02.221Z,-2.64
2023-03-03T02:06:39.321Z,-2.69
2023-03-03T02:09:15.327Z,-2.74
2023-03-03T02:11:44.682Z,-2.74
2023-03-03T02:14:12.369Z,-2.75
2023-03-03T02:16:41.405Z,-2.74
2023-03-03T02:19:15.694Z,-2.74
2023-03-03T02:21:42.633Z,-2.75
2023-03-03T02:24:14.040Z,-2.75
2023-03-03T02:26:42.582Z,-2.75
2023-03-03T02:29:10.385Z,-2.75
2023-03-03T02:31:38.243Z,-2.74
2023-03-03T02:34:06.045Z,-2.73
2023-03-03T02:36:36.574Z,-2.72
2023-03-03T02:39:23.568Z,-2.73
2023-03-03T02:41:58.438Z,-2.74
2023-03-03T02:44:32.431Z,-2.73
2023-03-03T02:46:59.501Z,-2.72
2023-03-03T02:49:30.633Z,-2.73
2023-03-03T02:51:58.665Z,-2.76
2023-03-03T02:54:29.739Z,-2.79
2023-03-03T02:56:57.998Z,-2.83
2023-03-03T02:59:24.904Z,-2.86
2023-03-03T03:01:52.916Z,-2.89
2023-03-03T03:04:22.814Z,-2.90
2023-03-03T03:06:50.822Z,-2.90
2023-03-03T03:09:20.550Z,-2.90
2023-03-03T03:11:48.817Z,-2.90
2023-03-03T03:14:17.346Z,-2.92
2023-03-03T03:16:44.600Z,-2.91
2023-03-03T03:19:12.021Z,-2.90
2023-03-03T03:21:39.100Z,-2.90
2023-03-03T03:24:06.917Z,-2.90
2023-03-03T03:26:34.596Z,-2.94
2023-03-03T03:29:02.639Z,-3.00
2023-03-03T03:31:29.530Z,-3.07
2023-03-03T03:33:56.370Z,-3.14
2023-03-03T03:36:23.870Z,-3.18
2023-03-03T03:38:51.929Z,-3.20
2023-03-03T03:41:18.832Z,-3.24
2023-03-03T03:43:46.638Z,-3.25
2023-03-03T03:46:14.382Z,-3.25
2023-03-03T03:48:41.277Z,-3.28
2023-03-03T03:51:11.040Z,-3.30
2023-03-03T03:53:38.336Z,-3.32
2023-03-03T03:56:05.850Z,-3.32
2023-03-03T03:58:33.100Z,-3.33
2023-03-03T04:01:06.712Z,-3.34
2023-03-03T04:03:35.707Z,-3.32
2023-03-03T04:06:04.747Z,-3.33
2023-03-03T04:08:31.629Z,-3.35
2023-03-03T04:10:58.518Z,-3.35
2023-03-03T04:13:28.469Z,-3.36
2023-03-03T04:15:55.377Z,-3.35
2023-03-03T04:18:22.289Z,-3.37
2023-03-03T04:20:49.606Z,-3.39
2023-03-03T04:23:16.498Z,-3.39
2023-03-03T04:25:43.348Z,-3.38
2023-03-03T04:28:14.972Z,-3.34
2023-03-03T04:30:42.033Z,-3.30
2023-03-03T04:33:09.644Z,-3.30
2023-03-03T04:35:38.253Z,-3.35
2023-03-03T04:38:05.331Z,-3.38
2023-03-03T04:40:32.482Z,-3.40
2023-03-03T04:43:00.430Z,-3.38
2023-03-03T04:45:27.739Z,-3.41
2023-03-03T04:47:54.872Z,-3.45
2023-03-03T04:50:22.333Z,-3.45
2023-03-03T04:52:49.449Z,-3.41
2023-03-03T04:55:16.996Z,-3.38
2023-03-03T04:57:45.683Z,-3.33
2023-03-03T05:00:16.098Z,-3.26
2023-03-03T05:02:43.627Z,-3.20
2023-03-03T05:05:11.257Z,-3.16
2023-03-03T05:07:37.999Z,-3.21
2023-03-03T05:10:06.418Z,-3.31
2023-03-03T05:12:33.395Z,-3.41
2023-03-03T05:15:00.906Z,-3.48
2023-03-03T05:17:28.330Z,-3.49
2023-03-03T05:19:56.698Z,-3.43
2023-03-03T05:22:24.449Z,-3.37
2023-03-03T05:24:51.405Z,-3.31
2023-03-03T05:27:18.302Z,-3.23
2023-03-03T05:29:45.409Z,-3.17
2023-03-03T05:32:12.298Z,-3.12
2023-03-03T05:34:39.266Z,-3.08
2023-03-03T05:37:06.297Z,-3.02
2023-03-03T05:39:34.293Z,-2.96
2023-03-03T05:42:01.309Z,-2.90
2023-03-03T05:44:28.436Z,-2.82
2023-03-03T05:46:57.163Z,-2.72
2023-03-03T05:49:25.518Z,-2.62
2023-03-03T05:51:52.370Z,-2.52
2023-03-03T05:54:19.495Z,-2.40
2023-03-03T05:56:46.230Z,-2.27
2023-03-03T05:59:13.288Z,-2.17
2023-03-03T06:01:40.404Z,-2.07
2023-03-03T06:04:08.056Z,-1.96
2023-03-03T06:06:35.071Z,-1.83
2023-03-03T06:09:02.139Z,-1.68
2023-03-03T06:11:28.944Z,-1.53
2023-03-03T06:13:55.798Z,-1.38
2023-03-03T06:16:22.679Z,-1.24
2023-03-03T06:18:49.895Z,-1.07
2023-03-03T06:21:16.884Z,-0.93
2023-03-03T06:23:43.662Z,-0.86
2023-03-03T06:26:10.416Z,-0.92
2023-03-03T06:28:37.304Z,-0.87
2023-03-03T06:31:04.474Z,-0.74
2023-03-03T06:33:31.205Z,-0.56
2023-03-03T06:35:58.321Z,-0.42
2023-03-03T06:38:25.150Z,-0.33
2023-03-03T06:40:52.097Z,-0.17
2023-03-03T06:43:19.196Z,0.03
2023-03-03T06:45:46.331Z,0.22
2023-03-03T06:48:13.320Z,0.39
2023-03-03T06:50:40.251Z,0.59
2023-03-03T06:53:16.688Z,0.74
2023-03-03T06:55:44.464Z,0.89
2023-03-03T06:58:16.179Z,1.04
2023-03-03T07:00:45.818Z,1.13
2023-03-03T07:03:24.611Z,1.17
2023-03-03T07:05:53.193Z,1.22
2023-03-03T07:08:22.755Z,1.28
2023-03-03T07:10:51.318Z,1.39
2023-03-03T07:13:18.162Z,1.50
2023-03-03T07:15:47.141Z,1.58
2023-03-03T07:18:39.074Z,1.68
2023-03-03T07:21:21.250Z,1.69
2023-03-03T07:23:51.360Z,1.68
2023-03-03T07:26:28.436Z,1.79
2023-03-03T07:28:59.800Z,1.92
2023-03-03T07:31:35.644Z,2.10
2023-03-03T07:34:20.084Z,2.26
2023-03-03T07:36:47.114Z,2.45
2023-03-03T07:39:33.615Z,2.46
2023-03-03T07:42:18.924Z,2.56
2023-03-03T07:44:51.487Z,2.66
2023-03-03T07:47:29.304Z,2.73
2023-03-03T07:50:18.909Z,2.88
2023-03-03T07:52:58.528Z,3.11
2023-03-03T07:55:31.345Z,3.22
2023-03-03T07:58:12.428Z,3.31
2023-03-03T08:00:39.263Z,3.63
2023-03-03T08:03:16.556Z,3.74
2023-03-03T08:05:46.449Z,3.83
2023-03-03T08:08:29.664Z,4.08
2023-03-03T08:11:01.336Z,4.40
2023-03-03T08:13:34.326Z,4.76
2023-03-03T08:16:02.669Z,5.03
2023-03-03T08:18:36.008Z,5.31
2023-03-03T08:21:06.906Z,5.68
2023-03-03T08:23:33.708Z,5.88
2023-03-03T08:26:00.564Z,6.30
2023-03-03T08:28:27.648Z,6.53
2023-03-03T08:31:08.856Z,6.68
2023-03-03T08:33:40.346Z,7.11
2023-03-03T08:36:10.514Z,7.31
2023-03-03T08:38:38.724Z,7.64
2023-03-03T08:41:06.047Z,7.94
2023-03-03T08:43:32.854Z,8.51
2023-03-03T08:46:02.085Z,9.23
2023-03-03T08:48:29.553Z,9.90
2023-03-03T08:50:56.390Z,10.32
2023-03-03T08:53:23.801Z,10.71
2023-03-03T08:55:50.651Z,10.99
2023-03-03T08:58:19.420Z,10.94
2023-03-03T09:00:49.239Z,11.17
2023-03-03T09:03:17.070Z,11.12
2023-03-03T09:05:45.260Z,11.44
2023-03-03T09:08:12.167Z,11.81
2023-03-03T09:10:39.087Z,12.06
2023-03-03T09:13:15.965Z,12.46
2023-03-03T09:15:42.981Z,12.47
2023-03-03T09:18:30.092Z,12.45
2023-03-03T09:20:57.177Z,12.68
2023-03-03T09:23:41.865Z,13.23
2023-03-03T09:26:27.699Z,13.32
2023-03-03T09:29:14.833Z,13.12
2023-03-03T09:31:49.036Z,13.08
2023-03-03T09:34:24.226Z,13.38
2023-03-03T09:36:55.761Z,13.68
2023-03-03T09:39:29.504Z,13.69
2023-03-03T09:42:27.630Z,13.61
2023-03-03T09:45:12.785Z,13.80
2023-03-03T09:47:58.094Z,14.10
2023-03-03T09:50:39.797Z,14.14
2023-03-03T09:53:23.614Z,14.06
2023-03-03T09:56:13.233Z,14.28
2023-03-03T09:59:21.872Z,14.67
2023-03-03T10:02:06.954Z,15.16
2023-03-03T10:04:56.886Z,15.14
2023-03-03T10:07:42.292Z,15.22
2023-03-03T10:10:32.076Z,15.40
2023-03-03T10:13:19.175Z,15.61
2023-03-03T10:16:12.897Z,15.91
2023-03-03T10:18:49.207Z,16.18
2023-03-03T10:21:34.579Z,15.75
2023-03-03T10:24:23.287Z,15.87
2023-03-03T10:27:09.754Z,15.60
2023-03-03T10:29:54.280Z,15.84
2023-03-03T10:32:27.349Z,15.71
2023-03-03T10:35:14.069Z,-12.96
2023-03-03T10:37:46.974Z,15.68
2023-03-03T10:40:23.718Z,15.96
2023-03-03T10:43:02.818Z,16.24
2023-03-03T10:45:51.166Z,16.29
2023-03-03T10:49:00.113Z,16.50
2023-03-03T10:51:29.980Z,16.99
2023-03-03T10:54:09.143Z,16.87
2023-03-03T10:56:53.643Z,17.14
2023-03-03T10:59:31.043Z,17.19
2023-03-03T11:02:06.406Z,17.52
2023-03-03T11:04:36.122Z,17.86
2023-03-03T11:07:12.391Z,17.89
2023-03-03T11:09:57.754Z,18.06
2023-03-03T11:12:50.433Z,18.01
2023-03-03T11:15:41.220Z,18.39
2023-03-03T11:18:36.046Z,18.80
2023-03-03T11:21:14.607Z,18.89
2023-03-03T11:24:18.925Z,18.18
2023-03-03T11:27:08.417Z,17.62
2023-03-03T11:29:53.771Z,17.95
2023-03-03T11:32:37.783Z,17.91
2023-03-03T11:35:24.785Z,17.84
2023-03-03T11:38:03.784Z,17.92
2023-03-03T11:40:42.262Z,18.16
2023-03-03T11:43:49.183Z,18.31
2023-03-03T11:46:25.812Z,18.34
2023-03-03T11:49:01.612Z,18.21
2023-03-03T11:51:47.016Z,18.41
2023-03-03T11:54:27.048Z,18.42
2023-03-03T11:57:13.052Z,18.43
2023-03-03T11:59:47.691Z,18.58
2023-03-03T12:02:43.542Z,18.81
2023-03-03T12:05:19.316Z,18.98
2023-03-03T12:08:27.893Z,19.14
2023-03-03T12:11:30.201Z,19.33
2023-03-03T12:14:30.680Z,18.95
2023-03-03T12:17:06.329Z,18.89
2023-03-03T12:19:35.179Z,19.08
2023-03-03T12:22:17.192Z,19.06
2023-03-03T12:25:12.131Z,19.37
2023-03-03T12:27:59.907Z,19.54
2023-03-03T12:30:37.781Z,19.73
2023-03-03T12:33:29.524Z,19.73
2023-03-03T12:36:15.508Z,19.63
2023-03-03T12:39:01.145Z,19.49
2023-03-03T12:41:40.827Z,19.61
2023-03-03T12:44:17.686Z,19.53
2023-03-03T12:47:03.844Z,19.48
2023-03-03T12:49:42.760Z,19.51
2023-03-03T12:52:28.858Z,19.42
2023-03-03T12:55:04.801Z,19.32
2023-03-03T12:57:34.580Z,19.55
2023-03-03T13:00:10.621Z,19.92
2023-03-03T13:02:44.020Z,19.84
2023-03-03T13:05:45.739Z,19.69
2023-03-03T13:08:36.594Z,19.94
2023-03-03T13:11:34.362Z,20.23
2023-03-03T13:14:31.037Z,20.34
2023-03-03T13:17:21.061Z,20.30
2023-03-03T13:20:01.047Z,20.24
2023-03-03T13:22:54.745Z,20.22
2023-03-03T13:25:45.885Z,20.16
2023-03-03T13:28:21.599Z,19.91
2023-03-03T13:30:54.681Z,19.93
2023-03-03T13:33:26.813Z,19.76
2023-03-03T13:36:00.657Z,19.39
2023-03-03T13:38:42.060Z,19.16
2023-03-03T13:41:28.187Z,18.96
2023-03-03T13:44:31.978Z,18.51
2023-03-03T13:47:16.620Z,18.17
2023-03-03T13:50:02.225Z,18.15
2023-03-03T13:52:35.485Z,18.18
2023-03-03T13:55:29.380Z,17.99
2023-03-03T13:58:01.245Z,17.81
2023-03-03T14:00:38.614Z,17.73
2023-03-03T14:03:24.034Z,17.42
2023-03-03T14:05:57.380Z,17.19
2023-03-03T14:09:14.900Z,16.80
2023-03-03T14:12:08.843Z,16.50
2023-03-03T14:14:38.592Z,16.39
2023-03-03T14:17:29.190Z,16.44
2023-03-03T14:20:14.556Z,16.28
2023-03-03T14:22:55.944Z,16.21
2023-03-03T14:25:23.293Z,15.93
2023-03-03T14:27:50.037Z,15.79
2023-03-03T14:30:23.304Z,15.59
2023-03-03T14:33:15.322Z,15.27
2023-03-03T14:36:03.949Z,14.88
2023-03-03T14:38:33.961Z,14.72
2023-03-03T14:41:22.329Z,14.56
2023-03-03T14:43:58.425Z,14.32
2023-03-03T14:46:35.869Z,13.92
2023-03-03T14:49:14.914Z,13.59
2023-03-03T14:51:45.723Z,13.41
2023-03-03T14:54:28.060Z,13.05
2023-03-03T14:56:57.327Z,13.06
2023-03-03T14:59:26.927Z,12.97
2023-03-03T15:02:17.442Z,12.69
2023-03-03T15:04:46.266Z,12.37
2023-03-03T15:07:35.045Z,12.18
2023-03-03T15:10:04.577Z,12.07
2023-03-03T15:12:36.474Z,11.94
2023-03-03T15:15:06.030Z,11.81
2023-03-03T15:17:43.097Z,11.64
2023-03-03T15:20:43.408Z,11.32
2023-03-03T15:23:29.900Z,11.01
2023-03-03T15:26:02.323Z,10.75
2023-03-03T15:28:44.117Z,10.53
2023-03-03T15:31:34.532Z,10.34
2023-03-03T15:34:25.631Z,10.16
2023-03-03T15:37:01.932Z,9.97
2023-03-03T15:39:38.855Z,9.73
2023-03-03T15:42:14.413Z,9.45
2023-03-03T15:44:57.387Z,9.11
2023-03-03T15:47:57.178Z,8.78
2023-03-03T15:51:02.974Z,8.43
2023-03-03T15:53:54.570Z,8.05
2023-03-03T15:56:58.476Z,7.73
2023-03-03T15:59:47.509Z,7.41
2023-03-03T16:02:42.174Z,7.16
2023-03-03T16:05:12.222Z,6.92
2023-03-03T16:07:48.321Z,6.71
2023-03-03T16:10:16.056Z,6.52
2023-03-03T16:12:59.710Z,6.35
2023-03-03T16:15:34.238Z,6.17
2023-03-03T16:18:15.439Z,6.00
2023-03-03T16:20:48.169Z,5.88
2023-03-03T16:23:14.989Z,5.76
2023-03-03T16:26:03.834Z,5.65
2023-03-03T16:29:00.690Z,5.48
2023-03-03T16:31:49.391Z,5.32
2023-03-03T16:34:34.837Z,5.19
2023-03-03T16:37:14.114Z,5.08
2023-03-03T16:39:52.716Z,4.99
2023-03-03T16:42:29.428Z,4.91
2023-03-03T16:45:36.597Z,4.83
2023-03-03T16:48:19.080Z,4.74
2023-03-03T16:50:57.988Z,4.67
2023-03-03T16:53:24.715Z,4.58
2023-03-03T16:56:21.835Z,4.50
2023-03-03T16:58:50.684Z,4.41
2023-03-03T17:02:05.314Z,4.38
2023-03-03T17:04:37.849Z,4.36
2023-03-03T17:07:32.619Z,4.34
2023-03-03T17:10:15.248Z,4.31
2023-03-03T17:13:11.657Z,4.28
2023-03-03T17:15:52.456Z,4.26
2023-03-03T17:18:38.844Z,4.25
2023-03-03T17:21:31.845Z,4.24
2023-03-03T17:24:16.388Z,4.10
2023-03-03T17:27:20.144Z,4.19
2023-03-03T17:29:53.155Z,4.17
2023-03-03T17:32:37.213Z,4.17
2023-03-03T17:35:35.286Z,4.19
2023-03-03T17:38:18.130Z,4.25
2023-03-03T17:41:16.244Z,4.26
2023-03-03T17:43:55.255Z,4.28
2023-03-03T17:46:31.322Z,4.30
2023-03-03T17:49:10.315Z,4.32
2023-03-03T17:51:46.320Z,4.32
2023-03-03T17:54:19.330Z,4.33
2023-03-03T17:57:13.158Z,4.33
2023-03-03T18:00:19.264Z,4.31
2023-03-03T18:03:08.413Z,4.28
2023-03-03T18:05:49.553Z,4.26
2023-03-03T18:08:47.409Z,4.23
2023-03-03T18:11:14.877Z,4.21
2023-03-03T18:13:53.947Z,4.19
2023-03-03T18:16:39.480Z,4.20
2023-03-03T18:19:09.660Z,4.20
2023-03-03T18:21:50.656Z,4.20
2023-03-03T18:24:29.417Z,4.19
2023-03-03T18:27:26.948Z,4.16
2023-03-03T18:30:19.865Z,4.14
2023-03-03T18:33:01.457Z,4.13
2023-03-03T18:35:45.537Z,4.13
2023-03-03T18:38:15.486Z,4.11
2023-03-03T18:40:59.558Z,4.10
2023-03-03T18:43:44.544Z,4.09
2023-03-03T18:46:34.756Z,4.09
2023-03-03T18:49:03.217Z,4.08
2023-03-03T18:51:39.093Z,4.05
2023-03-03T18:54:12.201Z,4.02
2023-03-03T18:56:55.528Z,3.98
2023-03-03T18:59:31.725Z,3.92
2023-03-03T19:02:13.617Z,3.89
2023-03-03T19:04:44.154Z,3.85
2023-03-03T19:07:26.217Z,3.82
2023-03-03T19:10:01.060Z,3.78
2023-03-03T19:12:53.291Z,3.73
2023-03-03T19:15:37.781Z,3.67
2023-03-03T19:18:14.859Z,3.61
2023-03-03T19:20:45.391Z,3.55
2023-03-03T19:23:15.448Z,3.51
2023-03-03T19:25:42.546Z,3.46
2023-03-03T19:28:11.964Z,3.41
2023-03-03T19:31:01.813Z,3.35
2023-03-03T19:34:10.215Z,3.25
2023-03-03T19:37:09.532Z,3.17
2023-03-03T19:39:57.487Z,3.10
2023-03-03T19:42:47.050Z,3.06
2023-03-03T19:45:29.019Z,2.99
2023-03-03T19:48:14.348Z,2.95
2023-03-03T19:50:48.580Z,2.92
2023-03-03T19:53:30.406Z,2.91
2023-03-03T19:56:02.830Z,2.88
2023-03-03T19:58:51.287Z,2.85
2023-03-03T20:01:32.194Z,2.81
2023-03-03T20:04:13.352Z,2.80
2023-03-03T20:07:47.414Z,2.78
2023-03-03T20:10:17.045Z,2.78
2023-03-03T20:13:03.052Z,2.75
2023-03-03T20:15:42.005Z,2.72
2023-03-03T20:18:28.119Z,2.69
2023-03-03T20:21:00.992Z,2.67
2023-03-03T20:23:36.638Z,2.66
2023-03-03T20:26:03.456Z,2.66
2023-03-03T20:29:02.336Z,2.63
2023-03-03T20:31:59.663Z,2.62
2023-03-03T20:34:44.048Z,2.61
2023-03-03T20:37:13.530Z,2.58
2023-03-03T20:40:01.660Z,2.58
2023-03-03T20:42:54.084Z,2.58
2023-03-03T20:46:09.130Z,2.56
2023-03-03T20:48:38.861Z,2.54
2023-03-03T20:51:21.500Z,2.53
2023-03-03T20:54:11.768Z,2.51
2023-03-03T20:56:47.553Z,2.48
2023-03-03T20:59:22.064Z,2.46
2023-03-03T21:02:01.377Z,2.46
2023-03-03T21:04:30.461Z,2.44
2023-03-03T21:06:58.480Z,2.42
2023-03-03T21:09:34.361Z,2.41
2023-03-03T21:12:10.536Z,2.39
2023-03-03T21:14:37.869Z,2.36
2023-03-03T21:17:26.362Z,2.33
2023-03-03T21:19:53.185Z,2.31
2023-03-03T21:22:20.110Z,2.31
2023-03-03T21:24:55.517Z,2.29
2023-03-03T21:27:33.240Z,2.26
2023-03-03T21:30:02.890Z,2.23
2023-03-03T21:32:47.495Z,2.17
2023-03-03T21:35:15.914Z,2.10
2023-03-03T21:37:55.918Z,2.04
2023-03-03T21:40:27.948Z,1.97
2023-03-03T21:42:57.327Z,1.94
2023-03-03T21:45:25.185Z,1.90
2023-03-03T21:47:54.608Z,1.87
2023-03-03T21:50:24.125Z,1.84
2023-03-03T21:52:51.131Z,1.81
2023-03-03T21:55:18.065Z,1.79
2023-03-03T21:57:44.838Z,1.75
2023-03-03T22:00:12.187Z,1.73
2023-03-03T22:02:39.151Z,1.67
2023-03-03T22:05:07.225Z,1.57
2023-03-03T22:07:34.315Z,1.51
2023-03-03T22:10:01.104Z,1.41
2023-03-03T22:12:28.067Z,1.31
2023-03-03T22:14:54.893Z,1.23
2023-03-03T22:17:24.938Z,1.12
2023-03-03T22:19:52.430Z,1.02
2023-03-03T22:22:19.259Z,0.93
2023-03-03T22:24:46.120Z,0.85
2023-03-03T22:27:12.985Z,0.76
2023-03-03T22:29:39.776Z,0.69
2023-03-03T22:32:06.547Z,0.63
2023-03-03T22:34:33.611Z,0.54
2023-03-03T22:37:00.371Z,0.46
2023-03-03T22:39:27.150Z,0.40
2023-03-03T22:41:53.893Z,0.35
2023-03-03T22:44:20.680Z,0.30
2023-03-03T22:46:47.438Z,0.25
2023-03-03T22:49:14.193Z,0.18
2023-03-03T22:51:41.009Z,0.13
2023-03-03T22:54:07.764Z,0.09
2023-03-03T22:56:34.560Z,0.05
2023-03-03T22:59:01.421Z,-0.00
2023-03-03T23:01:28.274Z,-0.07
2023-03-03T23:03:55.232Z,-0.12
2023-03-03T23:06:22.086Z,-0.18
2023-03-03T23:08:48.933Z,-0.23
2023-03-03T23:11:15.837Z,-0.27
2023-03-03T23:13:42.654Z,-0.32
2023-03-03T23:16:09.537Z,-0.30
2023-03-03T23:18:36.606Z,-0.29
2023-03-03T23:21:03.483Z,-0.25
2023-03-03T23:23:30.938Z,-0.25
2023-03-03T23:25:57.884Z,-0.23
2023-03-03T23:28:25.218Z,-0.25
2023-03-03T23:30:52.493Z,-0.28
2023-03-03T23:33:20.097Z,-0.33
2023-03-03T23:35:48.555Z,-0.36
2023-03-03T23:38:17.201Z,-0.39
2023-03-03T23:40:46.306Z,-0.42
2023-03-03T23:43:13.994Z,-0.43
2023-03-03T23:45:41.318Z,-0.45
2023-03-03T23:48:08.361Z,-0.46
2023-03-03T23:50:38.804Z,-0.48
2023-03-03T23:53:06.809Z,-0.50
2023-03-03T23:55:35.703Z,-0.54
2023-03-03T23:58:03.443Z,-0.57
